CheckWX is a tool to help pilots better visualize weather data.  It is not intended as a substitute for an official pre-flight weather briefing.

19:10:42 UTC

KHYS METAR
Hays Regional Airport
Hays, Kansas, USA
Current

15 mins ago

KHYS 221856Z AUTO 13010KT 10SM OVC009 01/M01 A3004 RMK AO2 SLP189 T00111011 FZRANO
Observed
Feb-22 @ 18:56 UTC
Wind
  • 130° at 10 KTS
Visibility
10 SM
Flight Rules
IFR
Cloud Levels
  • Overcast at 900' AGL
Temperature
C / 34°F
Dewpoint
-1°C / 30°F
Humidity
87%
Altimeter
30.04" Hg
Pressure
1018.9 hPa
Previous

1 hour ago

KHYS 221756Z AUTO 13009KT 10SM OVC013 01/M02 A3007 RMK AO2 SLP199 T00111017 10011 21033 55009 FZRANO
Observed
Feb-22 @ 17:56 UTC
Wind
  • 130° at 9 KTS
Visibility
10 SM
Flight Rules
MVFR
Cloud Levels
  • Overcast at 1,300' AGL
Temperature
C / 34°F
Dewpoint
-2°C / 28°F
Humidity
81%
Altimeter
30.07" Hg
Pressure
1019.9 hPa
Previous

2 hours ago

KHYS 221656Z AUTO 12011KT 10SM OVC025 01/M02 A3006 RMK AO2 SLP197 T00061017 FZRANO
Observed
Feb-22 @ 16:56 UTC
Wind
  • 120° at 11 KTS
Visibility
10 SM
Flight Rules
MVFR
Cloud Levels
  • Overcast at 2,500' AGL
Temperature
C / 34°F
Dewpoint
-2°C / 28°F
Humidity
81%
Altimeter
30.06" Hg
Pressure
1019.7 hPa